Time;durP1;ratioP1;P1;durP2;ratioP2;P2;SDS_P1;SDS_P2;PMS_P1;PMS_P2;Temp;Humidity;BMP_temperature;BMP_pressure;BME280_temperature;BME280_humidity;BME280_pressure;Samples;Min_cycle;Max_cycle;Signal;HPM_P1;HPM_P2
2021/05/22 00:01:09;;;;;;;3.42;3.13;;;9.20;99.90;;;;;;5032616;28;20099;-70
2021/05/22 00:03:35;;;;;;;3.85;2.97;;;9.40;99.90;;;;;;5032398;28;20053;-70
2021/05/22 00:06:01;;;;;;;4.68;2.97;;;9.40;99.90;;;;;;5031871;28;20076;-70
2021/05/22 00:08:27;;;;;;;5.18;2.78;;;9.50;99.90;;;;;;5032300;28;20049;-71
2021/05/22 00:10:54;;;;;;;5.97;2.88;;;9.50;99.90;;;;;;5032788;28;20485;-71
2021/05/22 00:13:20;;;;;;;3.75;2.83;;;9.60;99.90;;;;;;5032713;28;20081;-71
2021/05/22 00:15:46;;;;;;;2.65;2.22;;;9.50;99.90;;;;;;5032751;28;20080;-70
2021/05/22 00:18:12;;;;;;;6.85;2.63;;;9.60;99.90;;;;;;5036611;28;20069;-71
2021/05/22 00:20:38;;;;;;;3.97;2.97;;;9.70;99.90;;;;;;5036955;28;20083;-71
2021/05/22 00:23:05;;;;;;;4.78;2.92;;;9.50;99.90;;;;;;5038606;28;20446;-70
2021/05/22 00:25:31;;;;;;;3.80;2.90;;;9.40;99.90;;;;;;5036171;28;20081;-70
2021/05/22 00:27:58;;;;;;;3.40;3.10;;;9.30;99.90;;;;;;5036903;28;20509;-70
2021/05/22 00:30:24;;;;;;;6.70;3.03;;;9.10;99.90;;;;;;5036598;28;20054;-71
2021/05/22 00:32:50;;;;;;;5.32;3.05;;;9.20;99.90;;;;;;5036508;28;20084;-69
2021/05/22 00:35:16;;;;;;;5.23;2.33;;;9.20;99.90;;;;;;5036400;28;20088;-70
2021/05/22 00:37:42;;;;;;;5.73;3.17;;;9.20;99.90;;;;;;5035603;28;20073;-71
2021/05/22 00:40:10;;;;;;;4.68;2.75;;;9.20;99.90;;;;;;5036021;28;20069;-70
2021/05/22 00:42:39;;;;;;;5.53;2.42;;;9.30;99.90;;;;;;5036272;28;20519;-70
2021/05/22 00:45:09;;;;;;;4.73;2.73;;;9.30;99.90;;;;;;5036227;28;20148;-71
2021/05/22 00:47:36;;;;;;;2.57;2.37;;;9.30;99.90;;;;;;5035667;28;20053;-71
2021/05/22 00:50:04;;;;;;;7.27;2.73;;;9.30;99.90;;;;;;5036380;28;20473;-70
2021/05/22 00:52:30;;;;;;;2.58;2.38;;;9.20;99.90;;;;;;5036529;28;20046;-70
2021/05/22 00:54:56;;;;;;;4.70;2.20;;;9.20;99.90;;;;;;5036793;28;20045;-72
2021/05/22 00:57:23;;;;;;;7.07;2.53;;;9.20;99.90;;;;;;5035985;28;20132;-71
2021/05/22 00:59:49;;;;;;;5.50;2.50;;;9.10;99.90;;;;;;5036687;28;20073;-72
2021/05/22 01:02:22;;;;;;;2.90;2.22;;;9.10;99.90;;;;;;5036139;28;20517;-70
2021/05/22 01:04:48;;;;;;;5.97;2.75;;;9.00;99.90;;;;;;5036125;28;20077;-71
2021/05/22 01:07:14;;;;;;;3.97;2.83;;;9.00;99.90;;;;;;5036218;28;20052;-71
2021/05/22 01:09:41;;;;;;;3.30;2.50;;;8.90;99.90;;;;;;5036540;28;20080;-71
2021/05/22 01:12:09;;;;;;;2.90;2.20;;;8.90;99.90;;;;;;5036846;28;20079;-70
2021/05/22 01:14:41;;;;;;;3.07;2.23;;;9.00;99.90;;;;;;5034295;28;20073;-70
2021/05/22 01:17:08;;;;;;;5.70;2.53;;;9.10;99.90;;;;;;5036203;28;20781;-70
2021/05/22 01:19:40;;;;;;;4.47;2.60;;;9.00;99.90;;;;;;5036462;28;20041;-71
2021/05/22 01:22:07;;;;;;;2.75;2.17;;;9.20;99.90;;;;;;5037585;28;20041;-71
2021/05/22 01:24:38;;;;;;;5.03;2.45;;;9.30;99.90;;;;;;5037791;28;20049;-70
2021/05/22 01:27:06;;;;;;;9.57;4.07;;;9.40;99.90;;;;;;5035771;28;20081;-71
2021/05/22 01:29:32;;;;;;;4.93;2.60;;;9.50;99.90;;;;;;5033706;28;20073;-71
2021/05/22 01:31:58;;;;;;;3.55;2.25;;;9.60;99.90;;;;;;5035536;28;20123;-71
2021/05/22 01:34:24;;;;;;;2.80;2.15;;;9.70;99.90;;;;;;5035280;28;20458;-71
2021/05/22 01:36:50;;;;;;;7.27;3.27;;;9.60;99.90;;;;;;5040369;28;20080;-70
2021/05/22 01:39:16;;;;;;;4.00;2.20;;;9.80;99.90;;;;;;5034546;28;20080;-70
2021/05/22 01:41:43;;;;;;;4.13;2.15;;;9.80;99.90;;;;;;5035121;28;20452;-70
2021/05/22 01:44:11;;;;;;;2.10;1.90;;;9.90;99.90;;;;;;5035545;28;20370;-70
2021/05/22 01:46:39;;;;;;;2.13;1.52;;;10.00;99.90;;;;;;5034627;28;20434;-70
2021/05/22 01:49:06;;;;;;;3.53;2.15;;;10.00;99.90;;;;;;5034685;28;20076;-71
2021/05/22 01:51:32;;;;;;;2.38;1.65;;;10.00;99.90;;;;;;5034706;28;20520;-70
2021/05/22 01:53:59;;;;;;;3.65;1.73;;;10.00;99.90;;;;;;5034244;28;20046;-71
2021/05/22 01:56:25;;;;;;;2.35;2.00;;;9.90;99.90;;;;;;5033560;28;20077;-70
2021/05/22 01:58:52;;;;;;;4.55;1.88;;;9.90;99.90;;;;;;5033987;28;20060;-72
2021/05/22 02:01:19;;;;;;;3.63;2.10;;;9.90;99.90;;;;;;5034622;28;20041;-70
2021/05/22 02:03:47;;;;;;;4.63;1.70;;;9.90;99.90;;;;;;5034811;28;20531;-75
2021/05/22 02:06:18;;;;;;;4.55;2.00;;;9.90;99.90;;;;;;5034148;28;20041;-71
2021/05/22 02:08:47;;;;;;;4.73;2.33;;;9.90;99.90;;;;;;5035947;28;20054;-70
2021/05/22 02:11:13;;;;;;;2.70;2.15;;;9.90;99.90;;;;;;5035895;28;20072;-71
2021/05/22 02:13:41;;;;;;;3.45;2.13;;;9.90;99.90;;;;;;5036458;28;20053;-71
2021/05/22 02:16:09;;;;;;;5.20;2.03;;;10.00;99.90;;;;;;5036645;28;20127;-70
2021/05/22 02:18:37;;;;;;;2.30;2.08;;;10.00;99.90;;;;;;5037044;28;20077;-71
2021/05/22 02:21:05;;;;;;;1.65;1.55;;;10.00;99.90;;;;;;5036672;28;20081;-70
2021/05/22 02:23:35;;;;;;;2.92;1.65;;;9.90;99.90;;;;;;5036746;28;20398;-70
2021/05/22 02:26:02;;;;;;;1.83;1.67;;;9.90;99.90;;;;;;5036190;28;20721;-70
2021/05/22 02:28:31;;;;;;;4.57;2.17;;;9.90;99.90;;;;;;5036481;28;20045;-71
2021/05/22 02:30:59;;;;;;;2.88;1.77;;;10.00;99.90;;;;;;5036266;28;20081;-71
2021/05/22 02:33:26;;;;;;;4.03;1.98;;;9.90;99.90;;;;;;5036435;28;20099;-72
2021/05/22 02:35:55;;;;;;;2.03;1.92;;;9.90;99.90;;;;;;5035955;28;20091;-71
2021/05/22 02:38:24;;;;;;;3.63;1.90;;;9.80;99.90;;;;;;5035861;28;20057;-70
2021/05/22 02:40:54;;;;;;;6.75;2.22;;;9.90;99.90;;;;;;5035950;28;20513;-71
2021/05/22 02:43:22;;;;;;;3.65;1.70;;;9.90;99.90;;;;;;5036347;28;20064;-70
2021/05/22 02:45:49;;;;;;;1.80;1.70;;;10.00;99.90;;;;;;5036055;28;20061;-69
2021/05/22 02:48:19;;;;;;;3.38;1.80;;;9.90;99.90;;;;;;5037473;28;20049;-70
2021/05/22 02:50:47;;;;;;;2.38;2.17;;;9.90;99.90;;;;;;5018675;28;20487;-70
2021/05/22 02:53:16;;;;;;;3.30;1.90;;;10.10;99.90;;;;;;5021852;28;20123;-71
2021/05/22 02:55:44;;;;;;;4.03;2.33;;;10.10;99.90;;;;;;5036333;28;20041;-70
2021/05/22 02:58:10;;;;;;;1.52;1.42;;;10.20;99.90;;;;;;5036447;28;20060;-71
2021/05/22 03:00:37;;;;;;;1.50;1.40;;;10.20;99.90;;;;;;5035938;28;20046;-70
2021/05/22 03:03:03;;;;;;;2.03;1.73;;;10.20;99.90;;;;;;5035755;28;20049;-70
2021/05/22 03:05:31;;;;;;;2.00;1.90;;;10.20;99.90;;;;;;5035357;28;20054;-70
2021/05/22 03:07:57;;;;;;;1.92;1.77;;;10.30;99.90;;;;;;5035979;28;20045;-71
2021/05/22 03:10:26;;;;;;;4.65;2.22;;;10.30;99.90;;;;;;5035864;28;20431;-70
2021/05/22 03:12:52;;;;;;;3.97;1.90;;;10.30;99.90;;;;;;5035919;28;20049;-69
2021/05/22 03:15:18;;;;;;;2.20;2.00;;;10.30;99.90;;;;;;5035948;28;20048;-70
2021/05/22 03:17:44;;;;;;;2.13;1.83;;;10.30;99.90;;;;;;5035886;28;20069;-70
2021/05/22 03:20:11;;;;;;;3.67;1.73;;;10.40;99.90;;;;;;5035634;28;20046;-70
2021/05/22 03:22:37;;;;;;;1.40;1.30;;;10.40;99.90;;;;;;5036160;28;20049;-70
2021/05/22 03:25:04;;;;;;;1.65;1.55;;;10.40;99.90;;;;;;5035832;28;20049;-70
2021/05/22 03:27:31;;;;;;;3.03;1.95;;;10.40;99.90;;;;;;5035529;28;20073;-70
2021/05/22 03:29:58;;;;;;;2.20;1.98;;;10.40;99.90;;;;;;5035465;28;20092;-70
2021/05/22 03:32:24;;;;;;;1.75;1.52;;;10.40;99.90;;;;;;5035071;28;20497;-70
2021/05/22 03:34:50;;;;;;;1.35;1.25;;;10.50;99.90;;;;;;5033860;28;20076;-70
2021/05/22 03:37:16;;;;;;;1.95;1.70;;;10.50;99.90;;;;;;5034700;28;20073;-71
2021/05/22 03:39:43;;;;;;;4.45;2.70;;;10.50;99.90;;;;;;5034284;28;20053;-71
2021/05/22 03:42:09;;;;;;;4.43;2.72;;;10.50;99.90;;;;;;5034507;28;20073;-71
2021/05/22 03:44:35;;;;;;;6.65;2.35;;;10.50;99.90;;;;;;5034981;28;20045;-70
2021/05/22 03:47:02;;;;;;;4.72;2.08;;;10.60;99.90;;;;;;5034690;28;20069;-71
2021/05/22 03:49:28;;;;;;;2.42;2.08;;;10.60;99.90;;;;;;5034664;28;20092;-71
2021/05/22 03:51:54;;;;;;;4.18;2.03;;;10.70;99.90;;;;;;5034230;28;20052;-70
2021/05/22 03:54:20;;;;;;;1.90;1.58;;;10.70;99.90;;;;;;5034520;28;20072;-70
2021/05/22 03:56:46;;;;;;;3.03;1.85;;;10.70;99.90;;;;;;5034236;28;20060;-71
2021/05/22 03:59:12;;;;;;;1.40;1.30;;;10.70;99.90;;;;;;5034710;28;20183;-70
2021/05/22 04:01:39;;;;;;;4.70;1.48;;;10.70;99.90;;;;;;5034662;28;20057;-70
2021/05/22 04:04:06;;;;;;;2.92;1.85;;;10.80;99.90;;;;;;5033867;28;20080;-71
2021/05/22 04:06:32;;;;;;;3.17;1.95;;;10.80;99.90;;;;;;5032588;28;20095;-71
2021/05/22 04:08:59;;;;;;;1.63;1.50;;;10.90;99.90;;;;;;5033113;28;20073;-69
2021/05/22 04:11:25;;;;;;;2.67;1.60;;;11.00;99.90;;;;;;5034001;28;20103;-70
2021/05/22 04:13:51;;;;;;;3.20;1.50;;;11.00;99.90;;;;;;5033651;28;20076;-71
2021/05/22 04:16:17;;;;;;;2.28;1.88;;;11.10;99.90;;;;;;5033370;28;20073;-71
2021/05/22 04:18:44;;;;;;;5.03;1.83;;;11.20;99.90;;;;;;5033587;28;20069;-70
2021/05/22 04:21:11;;;;;;;1.92;1.52;;;11.20;99.90;;;;;;5033809;28;20096;-71
2021/05/22 04:23:37;;;;;;;1.50;1.38;;;11.20;99.90;;;;;;5033925;28;20378;-71
2021/05/22 04:26:04;;;;;;;1.90;1.52;;;11.20;99.90;;;;;;5033264;28;20069;-71
2021/05/22 04:28:30;;;;;;;2.17;1.55;;;11.30;99.90;;;;;;5033707;28;20057;-70
2021/05/22 04:30:56;;;;;;;1.63;1.52;;;11.30;99.90;;;;;;5033064;28;20076;-70
2021/05/22 04:33:22;;;;;;;2.13;1.88;;;11.30;99.90;;;;;;5016258;28;20082;-70
2021/05/22 04:35:49;;;;;;;2.63;1.27;;;11.40;99.90;;;;;;5015866;28;20046;-72
2021/05/22 04:38:15;;;;;;;3.15;1.63;;;11.40;99.90;;;;;;5033128;28;20493;-71
2021/05/22 04:40:41;;;;;;;1.52;1.42;;;11.40;99.90;;;;;;5033255;28;20103;-71
2021/05/22 04:43:08;;;;;;;1.35;1.15;;;11.50;99.90;;;;;;5033512;28;20069;-70
2021/05/22 04:45:34;;;;;;;2.08;1.80;;;11.50;99.90;;;;;;5032534;28;20049;-69
2021/05/22 04:48:00;;;;;;;1.95;1.50;;;11.50;99.90;;;;;;5034619;28;20496;-71
2021/05/22 04:50:28;;;;;;;2.30;1.50;;;11.70;99.90;;;;;;5033168;28;20045;-71
2021/05/22 04:52:55;;;;;;;2.38;1.80;;;11.70;99.90;;;;;;5033028;28;20045;-71
2021/05/22 04:55:21;;;;;;;1.98;1.45;;;11.80;99.90;;;;;;5032741;28;20050;-70
2021/05/22 04:57:48;;;;;;;1.42;1.10;;;11.90;99.90;;;;;;5032738;28;20081;-71
2021/05/22 05:00:15;;;;;;;1.65;1.33;;;12.10;99.90;;;;;;5032458;28;20111;-69
2021/05/22 05:02:41;;;;;;;1.55;1.38;;;12.20;99.90;;;;;;5034898;28;20080;-69
2021/05/22 05:05:08;;;;;;;2.05;1.55;;;12.40;99.90;;;;;;5036185;28;20069;-70
2021/05/22 05:07:34;;;;;;;2.33;1.40;;;12.60;99.90;;;;;;5036792;28;20073;-70
2021/05/22 05:10:01;;;;;;;1.42;1.33;;;12.60;99.90;;;;;;5036170;28;20241;-71
2021/05/22 05:12:27;;;;;;;1.63;1.08;;;12.60;99.90;;;;;;5036663;28;20069;-70
2021/05/22 05:14:53;;;;;;;2.80;1.52;;;12.50;99.90;;;;;;5036500;28;20045;-70
2021/05/22 05:17:19;;;;;;;1.70;1.60;;;12.50;99.90;;;;;;5036278;28;20065;-70
2021/05/22 05:19:46;;;;;;;5.43;1.52;;;12.40;99.90;;;;;;5035686;28;20088;-71
2021/05/22 05:22:12;;;;;;;2.30;1.38;;;12.40;99.90;;;;;;5036322;28;20076;-70
2021/05/22 05:24:38;;;;;;;4.93;1.38;;;12.40;99.90;;;;;;5036593;28;20510;-71
2021/05/22 05:27:05;;;;;;;1.52;1.23;;;12.40;99.90;;;;;;5035733;28;20503;-71
2021/05/22 05:29:31;;;;;;;2.65;1.55;;;12.50;99.90;;;;;;5035990;28;20073;-71
2021/05/22 05:31:57;;;;;;;1.85;1.45;;;12.50;99.90;;;;;;5036417;28;20069;-71
2021/05/22 05:34:23;;;;;;;1.65;1.20;;;12.50;99.90;;;;;;5036534;28;20131;-70
2021/05/22 05:36:49;;;;;;;1.83;1.38;;;12.60;99.90;;;;;;5035417;28;20037;-73
2021/05/22 05:39:15;;;;;;;1.63;1.52;;;12.70;99.90;;;;;;5025008;28;20076;-67
2021/05/22 05:41:41;;;;;;;1.67;1.45;;;12.80;99.90;;;;;;5034891;28;20061;-68
2021/05/22 05:44:08;;;;;;;1.88;1.20;;;12.80;99.90;;;;;;5035562;28;20115;-69
2021/05/22 05:46:35;;;;;;;1.20;1.10;;;12.80;99.90;;;;;;5035335;28;20061;-69
2021/05/22 05:49:01;;;;;;;3.88;1.33;;;12.80;99.90;;;;;;5033625;28;20045;-70
2021/05/22 05:51:27;;;;;;;1.67;1.02;;;12.80;99.90;;;;;;5034466;28;20512;-69
2021/05/22 05:53:53;;;;;;;1.65;1.45;;;12.60;99.90;;;;;;5035145;28;20501;-69
2021/05/22 05:56:19;;;;;;;1.77;1.65;;;12.60;99.90;;;;;;5034530;28;20398;-69
2021/05/22 05:58:45;;;;;;;2.10;1.10;;;12.60;99.90;;;;;;5034728;28;20568;-68
2021/05/22 06:01:14;;;;;;;1.70;1.20;;;12.60;99.90;;;;;;5036674;28;20516;-70
2021/05/22 06:03:40;;;;;;;1.40;1.30;;;12.60;99.90;;;;;;5035190;28;20124;-70
2021/05/22 06:06:06;;;;;;;1.35;1.08;;;12.40;99.90;;;;;;5034103;28;20444;-70
2021/05/22 06:08:32;;;;;;;1.17;1.08;;;12.40;99.90;;;;;;5033956;28;20053;-70
2021/05/22 06:11:00;;;;;;;1.77;1.00;;;12.50;99.90;;;;;;5034605;28;20088;-71
2021/05/22 06:13:28;;;;;;;1.63;1.52;;;12.40;99.90;;;;;;5033202;28;20049;-70
2021/05/22 06:16:05;;;;;;;1.60;1.50;;;12.20;99.90;;;;;;5035166;28;20042;-68
2021/05/22 06:18:33;;;;;;;1.50;1.40;;;12.00;99.90;;;;;;5035074;28;20517;-68
2021/05/22 06:21:00;;;;;;;2.65;1.73;;;11.80;99.90;;;;;;5034108;28;20111;-67
2021/05/22 06:23:26;;;;;;;3.25;1.70;;;11.70;99.90;;;;;;5033571;28;20389;-70
2021/05/22 06:25:53;;;;;;;5.38;1.58;;;11.50;99.90;;;;;;5033703;28;20041;-70
2021/05/22 06:28:19;;;;;;;2.05;1.95;;;11.50;99.90;;;;;;5033490;28;20049;-69
2021/05/22 06:30:45;;;;;;;4.07;2.13;;;11.50;99.90;;;;;;5034370;28;20045;-68
2021/05/22 06:33:11;;;;;;;1.80;1.70;;;11.60;99.90;;;;;;5033848;28;20046;-67
2021/05/22 06:35:38;;;;;;;5.78;1.92;;;11.60;99.90;;;;;;5030686;28;20052;-69
2021/05/22 06:38:04;;;;;;;1.88;1.65;;;11.70;99.90;;;;;;5033680;28;20073;-69
2021/05/22 06:40:31;;;;;;;2.63;1.90;;;11.70;99.90;;;;;;5034369;28;20573;-69
2021/05/22 06:42:57;;;;;;;2.70;1.70;;;11.80;99.90;;;;;;5034509;28;20544;-70
2021/05/22 06:45:25;;;;;;;5.80;1.60;;;11.80;99.90;;;;;;5033353;28;20053;-70
2021/05/22 06:47:52;;;;;;;2.70;1.63;;;11.90;99.90;;;;;;5033956;28;20417;-70
2021/05/22 06:50:18;;;;;;;4.38;2.35;;;11.90;99.90;;;;;;5033329;28;20060;-70
2021/05/22 06:52:45;;;;;;;3.85;1.70;;;12.10;99.90;;;;;;5033835;28;20069;-69
2021/05/22 06:55:11;;;;;;;2.33;1.70;;;12.20;99.90;;;;;;5032972;28;20072;-68
2021/05/22 06:57:37;;;;;;;1.95;1.52;;;12.30;99.90;;;;;;5033036;28;20045;-69
2021/05/22 07:00:05;;;;;;;2.00;1.42;;;12.50;99.90;;;;;;5033715;28;20060;-69
2021/05/22 07:02:31;;;;;;;1.80;1.70;;;12.70;99.90;;;;;;5031455;28;20092;-69
2021/05/22 07:04:57;;;;;;;2.22;1.50;;;12.90;99.90;;;;;;5033614;28;20057;-68
2021/05/22 07:07:23;;;;;;;3.13;1.52;;;13.30;99.90;;;;;;5032812;28;20137;-68
2021/05/22 07:09:50;;;;;;;2.47;1.75;;;13.90;99.90;;;;;;5033159;28;20156;-69
2021/05/22 07:12:16;;;;;;;4.32;2.00;;;14.10;99.90;;;;;;5033989;28;20493;-69
2021/05/22 07:14:42;;;;;;;2.75;2.10;;;14.00;99.90;;;;;;5033514;28;20077;-69
2021/05/22 07:17:08;;;;;;;5.10;3.20;;;14.10;99.90;;;;;;5033087;28;20045;-70
2021/05/22 07:19:34;;;;;;;2.03;1.40;;;14.20;99.90;;;;;;5033003;28;20077;-71
2021/05/22 07:22:00;;;;;;;3.03;1.67;;;14.40;99.90;;;;;;5033534;28;20092;-69
2021/05/22 07:24:27;;;;;;;3.63;1.10;;;14.60;99.90;;;;;;5033220;28;20119;-72
2021/05/22 07:26:55;;;;;;;2.83;1.45;;;14.50;99.90;;;;;;5032718;28;20045;-69
2021/05/22 07:29:22;;;;;;;3.80;1.45;;;14.50;99.90;;;;;;5033488;28;20046;-69
2021/05/22 07:31:48;;;;;;;1.73;1.17;;;14.60;99.90;;;;;;5032972;28;20500;-69
2021/05/22 07:34:14;;;;;;;1.45;1.10;;;14.60;99.90;;;;;;5033449;28;20045;-71
2021/05/22 07:36:41;;;;;;;1.10;1.00;;;14.70;99.90;;;;;;5032788;28;20648;-70
2021/05/22 07:39:13;;;;;;;2.85;0.95;;;14.60;99.90;;;;;;5032662;28;20131;-67
2021/05/22 07:41:39;;;;;;;1.25;0.85;;;14.50;99.90;;;;;;5032957;28;20049;-70
2021/05/22 07:44:06;;;;;;;1.75;0.90;;;14.50;99.90;;;;;;5033051;28;20073;-68
2021/05/22 07:46:33;;;;;;;1.00;0.90;;;14.50;99.90;;;;;;5032341;28;20049;-69
2021/05/22 07:48:59;;;;;;;1.85;1.00;;;14.60;99.90;;;;;;5025885;28;20144;-68
2021/05/22 07:51:25;;;;;;;1.95;1.27;;;14.80;99.90;;;;;;5024014;28;20045;-69
2021/05/22 07:53:52;;;;;;;0.60;0.45;;;14.90;99.90;;;;;;5019048;28;20045;-67
2021/05/22 07:56:18;;;;;;;0.85;0.75;;;14.70;99.90;;;;;;5032804;28;20045;-68
2021/05/22 07:58:44;;;;;;;2.00;0.80;;;14.80;99.90;;;;;;5032761;28;20049;-69
2021/05/22 08:01:11;;;;;;;3.53;1.85;;;14.80;99.90;;;;;;5032764;28;20543;-69
2021/05/22 08:03:37;;;;;;;2.67;0.68;;;15.30;99.90;;;;;;5032251;28;20046;-68
2021/05/22 08:06:04;;;;;;;3.67;0.50;;;15.70;99.90;;;;;;5032963;28;20149;-70
2021/05/22 08:08:30;;;;;;;0.63;0.63;;;15.70;99.90;;;;;;5032367;28;20046;-70
2021/05/22 08:10:56;;;;;;;0.70;0.70;;;15.60;99.90;;;;;;5032114;28;20520;-70
2021/05/22 08:13:27;;;;;;;0.55;0.55;;;16.10;99.90;;;;;;5031930;28;20045;-71
2021/05/22 08:15:53;;;;;;;0.52;0.50;;;16.50;98.90;;;;;;5032092;28;20064;-69
2021/05/22 08:18:20;;;;;;;2.20;0.52;;;16.20;98.00;;;;;;5032171;28;20069;-69
2021/05/22 08:20:46;;;;;;;0.68;0.47;;;16.10;98.30;;;;;;5032810;28;20456;-69
2021/05/22 08:23:12;;;;;;;0.70;0.52;;;16.60;96.60;;;;;;5032327;28;20512;-68
2021/05/22 08:25:38;;;;;;;1.40;0.60;;;16.80;95.40;;;;;;5032434;28;20087;-70
2021/05/22 08:28:05;;;;;;;0.90;0.60;;;17.10;94.50;;;;;;5031868;28;20516;-68
2021/05/22 08:30:31;;;;;;;1.25;0.68;;;17.80;93.00;;;;;;5031853;28;20049;-68
2021/05/22 08:32:57;;;;;;;1.30;0.93;;;17.70;91.10;;;;;;5032679;28;20135;-68
2021/05/22 08:35:24;;;;;;;1.35;0.60;;;17.90;90.90;;;;;;5032296;28;20607;-68
2021/05/22 08:37:50;;;;;;;2.60;0.80;;;17.80;90.10;;;;;;5034918;28;20050;-68
2021/05/22 08:40:16;;;;;;;3.38;0.68;;;17.90;90.40;;;;;;5036485;28;20488;-67
2021/05/22 08:42:43;;;;;;;1.35;0.50;;;18.30;89.40;;;;;;5035719;28;20116;-68
2021/05/22 08:45:11;;;;;;;1.15;0.50;;;18.60;87.80;;;;;;5035552;28;20069;-69
2021/05/22 08:47:38;;;;;;;0.45;0.30;;;18.80;84.80;;;;;;5035579;28;20135;-70
2021/05/22 08:50:06;;;;;;;2.25;0.57;;;19.00;85.30;;;;;;5035770;28;20045;-69
2021/05/22 08:52:33;;;;;;;2.55;0.60;;;17.70;83.60;;;;;;5036384;28;20045;-70
2021/05/22 08:54:59;;;;;;;2.55;1.05;;;17.70;85.20;;;;;;5036368;28;20148;-70
2021/05/22 08:57:26;;;;;;;0.40;0.40;;;18.10;83.20;;;;;;5035956;28;20045;-68
2021/05/22 08:59:52;;;;;;;1.30;0.60;;;19.10;80.00;;;;;;5035371;28;20095;-67
2021/05/22 09:02:20;;;;;;;0.43;0.30;;;19.10;77.30;;;;;;5035663;28;20444;-67
2021/05/22 09:05:18;;;;;;;1.52;0.40;;;20.00;77.30;;;;;;5035577;28;20064;-68
2021/05/22 09:07:47;;;;;;;1.60;0.68;;;19.80;71.40;;;;;;4995919;28;20047;-69
2021/05/22 09:10:17;;;;;;;3.67;0.88;;;20.10;72.50;;;;;;5027434;28;20053;-69
2021/05/22 09:12:44;;;;;;;2.33;0.55;;;19.00;70.00;;;;;;5035721;28;20068;-67
2021/05/22 09:15:12;;;;;;;1.50;0.63;;;18.70;72.70;;;;;;5035646;28;20469;-69
2021/05/22 09:17:46;;;;;;;4.53;0.95;;;18.80;73.50;;;;;;5035301;28;20143;-67
2021/05/22 09:20:18;;;;;;;1.55;0.63;;;19.50;70.70;;;;;;5035390;28;20461;-69
2021/05/22 09:22:54;;;;;;;3.03;0.40;;;19.10;69.50;;;;;;5035443;28;20042;-68
2021/05/22 09:25:20;;;;;;;2.05;0.63;;;19.30;70.00;;;;;;5035461;28;20494;-69
2021/05/22 09:27:46;;;;;;;1.00;0.73;;;19.50;69.10;;;;;;5035257;28;20069;-68
2021/05/22 09:30:14;;;;;;;1.98;0.40;;;18.60;69.90;;;;;;5035315;28;20125;-69
2021/05/22 09:32:42;;;;;;;1.42;0.55;;;18.50;70.10;;;;;;5035130;28;20052;-68
2021/05/22 09:35:10;;;;;;;2.20;0.82;;;18.70;69.40;;;;;;5034824;28;20501;-68
2021/05/22 09:37:43;;;;;;;1.35;0.30;;;17.80;70.20;;;;;;5035161;28;20045;-68
2021/05/22 09:40:11;;;;;;;0.65;0.30;;;17.00;73.60;;;;;;5035362;28;20049;-68
2021/05/22 09:42:40;;;;;;;4.18;2.15;;;17.60;74.00;;;;;;5034671;28;20073;-68
2021/05/22 09:45:30;;;;;;;2.45;0.70;;;17.60;73.00;;;;;;5035362;28;20045;-67
2021/05/22 09:47:59;;;;;;;0.93;0.55;;;17.70;74.50;;;;;;5034384;28;20050;-68
2021/05/22 09:50:33;;;;;;;2.67;0.77;;;18.00;74.10;;;;;;5034752;28;20056;-67
2021/05/22 09:53:00;;;;;;;2.47;0.52;;;18.50;73.30;;;;;;5035686;28;20049;-69
2021/05/22 09:55:27;;;;;;;0.40;0.32;;;18.90;70.70;;;;;;5035049;28;20401;-69
2021/05/22 09:57:55;;;;;;;3.53;0.63;;;18.60;66.90;;;;;;5034398;28;20504;-68
2021/05/22 10:00:24;;;;;;;3.35;0.68;;;18.50;72.10;;;;;;5034930;28;20401;-67
2021/05/22 10:02:52;;;;;;;3.40;0.63;;;19.00;66.50;;;;;;5034654;28;20520;-69
2021/05/22 10:05:20;;;;;;;1.65;0.40;;;19.00;66.40;;;;;;5034729;28;20436;-68
2021/05/22 10:07:48;;;;;;;3.88;0.60;;;18.30;68.40;;;;;;5034874;28;20049;-68
2021/05/22 10:10:15;;;;;;;1.90;0.70;;;17.50;69.30;;;;;;5034647;28;20073;-68
2021/05/22 10:12:43;;;;;;;0.82;0.43;;;17.80;72.50;;;;;;5034663;28;20073;-69
2021/05/22 10:15:10;;;;;;;0.50;0.50;;;18.30;66.70;;;;;;5036025;28;20045;-68
2021/05/22 10:17:37;;;;;;;1.38;0.80;;;17.90;68.30;;;;;;5034590;28;20056;-67
2021/05/22 10:20:05;;;;;;;0.98;0.80;;;17.50;67.70;;;;;;5034518;28;20084;-68
2021/05/22 10:22:31;;;;;;;1.05;0.90;;;17.00;68.10;;;;;;5034515;28;20049;-68
2021/05/22 10:24:58;;;;;;;0.55;0.55;;;17.10;69.70;;;;;;5034012;28;20415;-68
2021/05/22 10:27:24;;;;;;;1.85;1.25;;;17.10;69.50;;;;;;5034211;28;20081;-67
2021/05/22 10:29:51;;;;;;;3.60;0.93;;;17.80;69.60;;;;;;5034741;28;20045;-68
2021/05/22 10:32:21;;;;;;;1.40;1.00;;;18.60;66.60;;;;;;5034493;28;20096;-68
2021/05/22 10:34:49;;;;;;;1.50;0.85;;;19.60;63.90;;;;;;5033987;28;20041;-68
2021/05/22 10:37:41;;;;;;;3.58;1.08;;;20.60;59.90;;;;;;5034035;28;20444;-68
2021/05/22 10:40:09;;;;;;;2.17;0.60;;;20.90;59.40;;;;;;5034107;28;20053;-68
2021/05/22 10:42:47;;;;;;;4.38;0.93;;;20.60;57.20;;;;;;5034015;28;20077;-68
2021/05/22 10:45:32;;;;;;;2.78;1.02;;;20.60;57.00;;;;;;5034195;28;20119;-68
2021/05/22 10:47:59;;;;;;;3.55;1.00;;;21.40;57.10;;;;;;5033510;28;20045;-67
2021/05/22 10:50:44;;;;;;;0.93;0.52;;;21.20;53.40;;;;;;5033665;28;20049;-67
2021/05/22 10:53:25;;;;;;;4.85;1.08;;;20.70;53.40;;;;;;5033785;28;20046;-67
2021/05/22 10:56:13;;;;;;;2.00;0.37;;;20.60;53.90;;;;;;5033554;28;20123;-68
2021/05/22 10:59:00;;;;;;;1.45;0.57;;;19.90;54.80;;;;;;5033524;28;20058;-67
2021/05/22 11:01:35;;;;;;;1.08;0.90;;;18.80;57.50;;;;;;5033074;28;20046;-68
2021/05/22 11:04:27;;;;;;;2.42;0.70;;;18.90;56.30;;;;;;5033601;28;20056;-67
2021/05/22 11:06:55;;;;;;;1.63;0.98;;;18.70;60.30;;;;;;5033457;28;20061;-68
2021/05/22 11:09:48;;;;;;;1.88;0.65;;;18.90;61.50;;;;;;5033533;28;20041;-67
2021/05/22 11:12:43;;;;;;;0.20;0.20;;;18.90;62.40;;;;;;5033260;28;20190;-68
2021/05/22 11:15:45;;;;;;;1.42;0.40;;;19.50;60.10;;;;;;5033429;28;20104;-68
2021/05/22 11:18:17;;;;;;;0.77;0.47;;;19.30;59.30;;;;;;5033799;28;20103;-67
2021/05/22 11:21:00;;;;;;;3.83;0.50;;;19.40;57.60;;;;;;5033213;28;20041;-68
2021/05/22 11:23:26;;;;;;;3.40;0.63;;;18.50;59.50;;;;;;5032701;28;20069;-68
2021/05/22 11:25:52;;;;;;;2.67;1.45;;;19.50;59.00;;;;;;5033264;28;20077;-69
2021/05/22 11:28:21;;;;;;;0.93;0.73;;;20.00;58.20;;;;;;5033437;28;20045;-68
2021/05/22 11:30:52;;;;;;;1.88;1.35;;;20.10;59.40;;;;;;5033540;28;20105;-70
2021/05/22 11:33:29;;;;;;;;;;;20.90;57.70;;;;;;5033893;28;20077;-68
2021/05/22 11:35:57;;;;;;;2.58;0.90;;;21.20;56.90;;;;;;5033031;28;19928;-68
2021/05/22 11:38:34;;;;;;;2.72;0.77;;;21.50;55.70;;;;;;5033232;28;20469;-68
2021/05/22 11:41:03;;;;;;;1.77;1.10;;;19.60;56.10;;;;;;5013111;28;20076;-68
2021/05/22 11:43:31;;;;;;;1.23;0.60;;;19.40;57.20;;;;;;5013442;28;20077;-69
2021/05/22 11:45:59;;;;;;;1.77;0.75;;;19.30;56.20;;;;;;5012978;28;20046;-68
2021/05/22 11:48:26;;;;;;;1.15;0.40;;;19.40;56.70;;;;;;5013143;28;20042;-68
2021/05/22 11:51:03;;;;;;;0.38;0.30;;;19.00;56.00;;;;;;5032600;28;20077;-67
2021/05/22 11:53:30;;;;;;;1.20;0.82;;;19.70;56.10;;;;;;5033298;28;20076;-67
2021/05/22 11:55:57;;;;;;;1.58;0.55;;;20.10;55.30;;;;;;5033649;28;20072;-69
2021/05/22 11:58:23;;;;;;;3.03;0.50;;;20.40;54.70;;;;;;5032678;28;20069;-68
2021/05/22 12:00:49;;;;;;;1.15;0.60;;;20.30;55.30;;;;;;5032477;28;20497;-67
2021/05/22 12:03:25;;;;;;;1.08;1.08;;;19.80;56.10;;;;;;5032485;28;20106;-69
2021/05/22 12:05:51;;;;;;;3.65;0.60;;;20.20;56.00;;;;;;5032628;28;20056;-68
2021/05/22 12:08:21;;;;;;;1.08;0.30;;;21.20;54.70;;;;;;5033055;28;20041;-68
2021/05/22 12:10:47;;;;;;;1.67;0.52;;;20.70;52.90;;;;;;5032957;28;20114;-71
2021/05/22 12:13:14;;;;;;;0.52;0.52;;;20.00;55.60;;;;;;5033301;28;20076;-69
2021/05/22 12:15:42;;;;;;;3.53;0.50;;;19.80;55.20;;;;;;5033514;28;20045;-69
2021/05/22 12:18:09;;;;;;;1.17;0.52;;;19.30;55.50;;;;;;5033537;28;20041;-68
2021/05/22 12:20:46;;;;;;;2.50;0.50;;;18.80;56.80;;;;;;5034179;28;20505;-70
2021/05/22 12:23:30;;;;;;;1.05;0.25;;;18.90;57.80;;;;;;5033054;28;20049;-70
2021/05/22 12:25:57;;;;;;;1.17;1.08;;;19.80;57.00;;;;;;5032100;28;20493;-68
2021/05/22 12:28:24;;;;;;;2.63;1.27;;;19.60;56.40;;;;;;5032503;28;20096;-67
2021/05/22 12:30:52;;;;;;;1.30;0.40;;;19.00;58.80;;;;;;5032302;28;20064;-67
2021/05/22 12:33:18;;;;;;;0.65;0.52;;;19.30;57.80;;;;;;5032507;28;20485;-67
2021/05/22 12:35:46;;;;;;;3.75;0.73;;;19.20;58.10;;;;;;5032064;28;20073;-68
2021/05/22 12:38:13;;;;;;;1.30;1.13;;;19.20;58.80;;;;;;5032260;28;20046;-69
2021/05/22 12:40:47;;;;;;;0.70;0.70;;;19.30;56.90;;;;;;5032467;28;20108;-68
2021/05/22 12:43:13;;;;;;;2.67;0.70;;;19.60;57.70;;;;;;5032320;28;20053;-68
2021/05/22 12:45:42;;;;;;;2.10;0.93;;;20.20;57.00;;;;;;5032441;28;20203;-68
2021/05/22 12:48:21;;;;;;;3.55;0.85;;;21.10;56.30;;;;;;5032127;28;20085;-67
2021/05/22 12:50:48;;;;;;;1.95;0.68;;;20.50;54.90;;;;;;5033558;28;20132;-68
2021/05/22 12:53:14;;;;;;;1.35;0.73;;;19.40;56.50;;;;;;5031953;28;20045;-68